»·PEaware :: N145DR KSEA-KPDX

N145DR :: KSEA-KPDX

FLIGHT INFORMATION

Flight Status: Arrived
Operator: Privately registered:
United States
More flights under this callsign
Pilot: Anonymous 7940 (7940)
Aircraft: SOCATA TBM-900
(TBM9)
More flights by this aircraft type
Origin: KSEA Seattle-Tacoma Intl
United States
Destination: KPDX Portland Intl
United States
More flights between these airports :: More routes between these airports
Route: SEA7 BUWZO KRATR2
File this flight plan on PilotEdge
Remarks: Training - please ensure procedural compliance. (thank you as always!)
Altitude:
(Current/Filed)
11,000ft
Speed:
(Current/Filed)
180kts
Departed: 18-Feb-21 09:21 AM
Arrived: 18-Feb-21 10:01 AM
Distance/Time
Traveled:
112nm/0:40
Distance/Time
To Go:
Arrived

Flight Plot

Page will automatically refresh every two minutes.

Flight plan parsing failed; only flown route is shown


Map Options




Map Legend


Flown Route
Filed Route
Departure Airport
Arrival Airport
Navaid (VOR, NDB)
Fix

Horizontal Profiles

Position Reports

Time Latitude Longitude Heading Altitude Ground
Speed
18-Feb-21 09:01 47.436542 -122.303392 245 356ft 0kts
18-Feb-21 09:02 47.436542 -122.303392 245 356ft 0kts
18-Feb-21 09:03 47.436542 -122.303392 245 356ft 0kts
18-Feb-21 09:04 47.436542 -122.303392 245 356ft 0kts
18-Feb-21 09:05 47.436542 -122.303392 245 356ft 0kts
18-Feb-21 09:06 47.436542 -122.303392 245 356ft 0kts
18-Feb-21 09:07 47.436542 -122.303392 245 356ft 0kts
18-Feb-21 09:08 47.436542 -122.303392 245 356ft 0kts
18-Feb-21 09:09 47.436542 -122.303392 245 356ft 0kts
18-Feb-21 09:10 47.436542 -122.303392 245 356ft 0kts
18-Feb-21 09:11 47.436542 -122.303392 245 356ft 0kts
18-Feb-21 09:12 47.436542 -122.303392 245 356ft 0kts
18-Feb-21 09:13 47.436542 -122.303392 245 356ft 0kts
18-Feb-21 09:14 47.438162 -122.305107 342 363ft 19kts
18-Feb-21 09:15 47.443814 -122.306323 359 383ft 37kts
18-Feb-21 09:16 47.454801 -122.306210 0 427ft 38kts
18-Feb-21 09:16 47.459938 -122.306417 306 434ft 0kts
18-Feb-21 09:17 47.459938 -122.306417 306 434ft 0kts
18-Feb-21 09:19 47.459938 -122.306417 306 434ft 0kts
18-Feb-21 09:20 47.460009 -122.306621 291 433ft 8kts
18-Feb-21 09:20 47.450723 -122.307643 176 525ft 107kts
18-Feb-21 09:22 47.413112 -122.328281 237 2668ft 144kts
18-Feb-21 09:23 47.378894 -122.335495 170 4704ft 139kts
18-Feb-21 09:23 47.347130 -122.330700 175 6334ft 139kts
18-Feb-21 09:24 47.309381 -122.335672 194 8145ft 140kts
18-Feb-21 09:26 47.266508 -122.357539 195 10092ft 138kts
18-Feb-21 09:26 47.236554 -122.372005 195 11338ft 138kts
18-Feb-21 09:27 47.200093 -122.386357 194 12723ft 138kts
18-Feb-21 09:28 47.163246 -122.398135 194 13997ft 137kts
18-Feb-21 09:29 47.126698 -122.409943 195 15223ft 133kts
18-Feb-21 09:30 47.089335 -122.412431 184 16390ft 146kts
18-Feb-21 09:31 47.048754 -122.407526 186 18056ft 170kts
18-Feb-21 09:32 46.994919 -122.400825 184 18181ft 214kts
18-Feb-21 09:33 46.933240 -122.393039 183 18164ft 229kts
18-Feb-21 09:34 46.868904 -122.385000 183 18166ft 235kts
18-Feb-21 09:35 46.803172 -122.376819 183 18165ft 238kts
18-Feb-21 09:36 46.737073 -122.368607 183 18164ft 239kts
18-Feb-21 09:37 46.670921 -122.360415 183 18165ft 239kts
18-Feb-21 09:38 46.605457 -122.352356 183 17535ft 232kts
18-Feb-21 09:39 46.541408 -122.344497 181 16028ft 232kts
18-Feb-21 09:40 46.476894 -122.336560 180 14517ft 233kts
18-Feb-21 09:41 46.412166 -122.328615 178 13035ft 235kts
18-Feb-21 09:42 46.351479 -122.321121 179 12976ft 207kts
18-Feb-21 09:43 46.295255 -122.314274 179 12986ft 201kts
18-Feb-21 09:44 46.241110 -122.318146 202 12969ft 196kts
18-Feb-21 09:45 46.184615 -122.350028 201 11508ft 231kts
18-Feb-21 09:46 46.125483 -122.382983 200 10063ft 236kts
18-Feb-21 09:47 46.076921 -122.409745 199 9980ft 212kts
18-Feb-21 09:48 46.023438 -122.438634 198 8571ft 214kts
18-Feb-21 09:49 45.963284 -122.470999 198 7019ft 210kts
18-Feb-21 09:50 45.915939 -122.507035 218 6611ft 200kts
18-Feb-21 09:51 45.872320 -122.562517 218 5231ft 214kts
18-Feb-21 09:52 45.827415 -122.620179 218 3646ft 221kts
18-Feb-21 09:53 45.784448 -122.673426 219 2963ft 178kts
18-Feb-21 09:54 45.744041 -122.707294 204 2698ft 173kts
18-Feb-21 09:55 45.702309 -122.730724 188 2012ft 138kts
18-Feb-21 09:56 45.665789 -122.730396 161 1791ft 135kts
18-Feb-21 09:57 45.634720 -122.700275 123 1186ft 137kts
18-Feb-21 09:58 45.616908 -122.652740 122 762ft 134kts
18-Feb-21 09:59 45.601785 -122.613610 119 383ft 81kts
18-Feb-21 10:00 45.593643 -122.592666 96 20ft 28kts

Navigation Log

Ident Type
Flight plan parsing failed, navigation log unavailable